Página principal
METAR-TAF:

METAR-TAF

Aeroportos :

Houston, Texas, Estados Unidos

latitude: 29-48-18N, longitude: 095-53-52W, altura: 51 m

Observação actual do tempo

O boletim foi feito há 19 minutos, às 22:15 UTC
Vento 8 kt de norte
Temperatura 8°C
Humidade 81%
Pressão 1026 hPa
Visibilidade: 14.5 km
Encobertoa uma altura de 1800 ft

METAR: KTME 092215Z AUTO 35008KT 9SM OVC018 08/05 A3030 RMK AO2

Hora: 15:34 (22:34 UTC)


TAF: em falta

Observações e previsões do tempo de mais de 4000 aeroportos (mensagens METAR e TAF).

As estações disponíveis são os pontos amarelos e vermelhos sobre o mapa.

Mova o rato sobre o mapa para ver o nome da estação.

Depois clique no ponto para visualizar as observações e previsões meteorológicas.

Para alterar o mapa : clique nos botões verdes com uma cruz preta para aumentar o zoom; no botão verde com uma pitada de zoom; ou nas setas verdes para mapas adjacentes.


METAR-TAF: